Time;durP1;ratioP1;P1;durP2;ratioP2;P2;SDS_P1;SDS_P2;PMS_P1;PMS_P2;Temp;Humidity;BMP_temperature;BMP_pressure;BME280_temperature;BME280_humidity;BME280_pressure;Samples;Min_cycle;Max_cycle;Signal;HPM_P1;HPM_P2
2022/06/15 00:01:41;;;;;;;;;3.00;3.00;;;;;24.27;45.41;101285.03;5117929;27;45497;-76
2022/06/15 00:04:07;;;;;;;;;4.00;4.00;;;;;24.25;45.37;101281.53;5117224;27;45778;-78
2022/06/15 00:06:37;;;;;;;;;4.33;4.33;;;;;24.22;45.66;101279.81;5117835;27;45366;-76
2022/06/15 00:09:03;;;;;;;;;5.00;5.00;;;;;24.17;46.11;101281.78;5116643;27;47263;-78
2022/06/15 00:11:31;;;;;;;;;3.33;3.33;;;;;24.14;46.05;101281.94;5117122;27;45511;-77
2022/06/15 00:13:59;;;;;;;;;4.67;4.67;;;;;24.12;46.48;101282.91;5117493;27;45293;-76
2022/06/15 00:16:25;;;;;;;;;4.00;4.00;;;;;24.05;46.75;101272.34;5117227;27;45496;-76
2022/06/15 00:18:51;;;;;;;;;7.00;5.00;;;;;24.03;46.82;101286.84;5117646;27;46402;-76
2022/06/15 00:21:17;;;;;;;;;7.00;4.33;;;;;23.97;47.00;101289.75;5117488;27;45221;-77
2022/06/15 00:23:43;;;;;;;;;4.00;4.00;;;;;23.94;47.29;101285.38;5117738;27;45257;-76
2022/06/15 00:26:09;;;;;;;;;4.00;4.00;;;;;23.90;47.80;101282.84;5117410;27;45350;-76
2022/06/15 00:28:35;;;;;;;;;5.67;4.33;;;;;23.86;47.94;101279.38;5115661;27;46546;-76
2022/06/15 00:31:01;;;;;;;;;4.67;4.67;;;;;23.84;48.23;101277.69;5116647;27;45629;-76
2022/06/15 00:33:27;;;;;;;;;4.33;4.33;;;;;23.82;48.43;101284.97;5116883;27;45406;-76
2022/06/15 00:36:02;;;;;;;;;2.67;2.67;;;;;23.76;48.46;101286.94;5116842;27;45797;-76
2022/06/15 00:38:31;;;;;;;;;6.00;5.00;;;;;23.72;48.69;101292.50;5111710;27;47434;-76
2022/06/15 00:40:57;;;;;;;;;6.00;4.33;;;;;23.66;49.24;101290.91;5116435;27;45428;-76
2022/06/15 00:43:28;;;;;;;;;4.33;4.33;;;;;23.61;49.11;101294.66;5116776;27;45225;-77
2022/06/15 00:45:54;;;;;;;;;5.33;4.00;;;;;23.57;49.47;101295.72;5117586;27;45333;-76
2022/06/15 00:48:19;;;;;;;;;4.33;4.00;;;;;23.53;49.76;101294.91;5098436;27;46531;-77
2022/06/15 00:50:45;;;;;;;;;5.00;5.00;;;;;23.51;49.96;101291.41;5116401;27;65038;-76
2022/06/15 00:53:10;;;;;;;;;4.00;4.00;;;;;23.48;50.30;101291.50;5116701;27;45507;-76
2022/06/15 00:55:37;;;;;;;;;5.00;4.00;;;;;23.44;50.87;101287.19;5097827;27;64452;-76
2022/06/15 00:58:06;;;;;;;;;3.00;3.00;;;;;23.43;50.43;101294.38;5116710;27;46761;-77
2022/06/15 01:00:31;;;;;;;;;5.00;3.67;;;;;23.40;50.98;101290.91;5097926;27;45382;-75
2022/06/15 01:02:56;;;;;;;;;4.33;4.33;;;;;23.38;51.26;101292.75;5116662;27;45336;-76
2022/06/15 01:05:34;;;;;;;;;4.33;3.33;;;;;23.36;51.33;101292.81;5116218;27;45612;-78
2022/06/15 01:08:21;;;;;;;;;4.67;4.33;;;;;23.34;51.57;101296.53;5097842;27;47975;-77
2022/06/15 01:11:19;;;;;;;;;4.00;4.00;;;;;23.30;52.13;101294.84;5097611;27;45414;-76
2022/06/15 01:14:01;;;;;;;;;4.00;3.33;;;;;23.25;52.60;101292.31;5096191;27;45372;-76
2022/06/15 01:16:37;;;;;;;;;5.00;5.00;;;;;23.22;52.47;101289.72;5095681;27;46249;-77
2022/06/15 01:19:26;;;;;;;;;4.33;4.00;;;;;23.19;52.71;101292.53;5098315;27;47332;-77
2022/06/15 01:22:07;;;;;;;;;5.00;4.00;;;;;23.17;52.93;101291.69;5116034;27;45479;-75
2022/06/15 01:24:35;;;;;;;;;6.00;5.00;;;;;23.13;53.17;101290.06;5116821;27;45231;-77
2022/06/15 01:27:17;;;;;;;;;4.00;4.00;;;;;23.11;53.48;101289.19;5116913;27;46226;-77
2022/06/15 01:29:42;;;;;;;;;4.67;4.00;;;;;23.07;53.46;101295.66;5115748;27;48382;-75
2022/06/15 01:32:13;;;;;;;;;5.00;3.00;;;;;23.03;54.04;101294.84;5116435;27;47200;-77
2022/06/15 01:34:44;;;;;;;;;4.00;3.00;;;;;22.98;54.24;101284.22;5097440;27;45422;-76
2022/06/15 01:37:26;;;;;;;;;4.33;4.33;;;;;22.93;54.32;101280.81;5116344;27;45414;-76
2022/06/15 01:39:53;;;;;;;;;3.33;3.33;;;;;22.90;55.01;101285.41;5115655;27;47354;-77
2022/06/15 01:42:22;;;;;;;;;3.67;3.00;;;;;22.85;55.09;101281.94;5101261;27;45545;-75
2022/06/15 01:44:52;;;;;;;;;4.67;4.00;;;;;22.80;55.26;101282.13;5101024;27;45456;-76
2022/06/15 01:47:20;;;;;;;;;5.33;5.00;;;;;22.77;55.50;101286.72;5112157;27;45539;-77
2022/06/15 01:49:50;;;;;;;;;4.00;4.00;;;;;22.72;55.55;101279.66;5100788;27;46323;-77
2022/06/15 01:52:19;;;;;;;;;6.67;4.00;;;;;22.69;56.70;101281.56;5119079;27;45390;-76
2022/06/15 01:55:02;;;;;;;;;4.00;4.00;;;;;22.66;56.31;101268.22;5101618;27;45426;-77
2022/06/15 01:57:29;;;;;;;;;4.67;4.33;;;;;22.64;56.89;101262.03;5119844;27;45524;-75
2022/06/15 02:00:07;;;;;;;;;5.33;5.33;;;;;22.63;56.54;101271.00;5101076;27;46663;-77
2022/06/15 02:02:33;;;;;;;;;5.00;4.67;;;;;22.61;57.01;101270.19;5119083;27;45412;-77
2022/06/15 02:05:06;;;;;;;;;5.67;4.00;;;;;22.57;57.23;101265.81;5118918;27;45467;-77
2022/06/15 02:08:02;;;;;;;;;4.00;4.00;;;;;22.54;57.73;101272.19;5118132;27;45736;-77
2022/06/15 02:10:32;;;;;;;;;4.00;4.00;;;;;22.49;58.13;101272.34;5116683;27;46912;-77
2022/06/15 02:13:07;;;;;;;;;7.33;5.00;;;;;22.45;58.22;101272.47;5117940;27;45436;-75
2022/06/15 02:15:35;;;;;;;;;5.67;4.67;;;;;22.40;58.28;101267.22;5099323;27;46141;-76
2022/06/15 02:18:04;;;;;;;;;3.33;3.33;;;;;22.38;58.42;101261.03;5099251;27;53838;-77
2022/06/15 02:20:38;;;;;;;;;5.00;5.00;;;;;22.34;58.82;101263.84;5099687;27;46724;-75
2022/06/15 02:23:06;;;;;;;;;6.00;4.00;;;;;22.30;59.47;101257.66;5117798;27;45320;-76
2022/06/15 02:25:36;;;;;;;;;5.67;5.00;;;;;22.27;59.11;101265.84;5117877;27;46023;-76
2022/06/15 02:28:03;;;;;;;;;5.33;4.00;;;;;22.25;59.55;101259.63;5099676;27;45378;-76
2022/06/15 02:30:29;;;;;;;;;5.00;5.00;;;;;22.22;59.84;101257.03;5117827;27;46528;-76
2022/06/15 02:32:55;;;;;;;;;5.00;5.00;;;;;22.21;59.93;101263.31;5117259;27;45599;-75
2022/06/15 02:35:21;;;;;;;;;6.00;4.00;;;;;22.21;60.48;101257.94;5117475;27;45257;-77
2022/06/15 02:37:49;;;;;;;;;4.33;4.00;;;;;22.17;60.53;101261.69;5117916;27;45398;-77
2022/06/15 02:40:17;;;;;;;;;4.00;4.00;;;;;22.17;60.97;101259.88;5117581;27;46187;-76
2022/06/15 02:42:45;;;;;;;;;5.00;4.00;;;;;22.15;60.83;101258.13;5118040;27;45316;-76
2022/06/15 02:45:18;;;;;;;;;5.33;5.00;;;;;22.14;60.92;101259.94;5118192;27;45275;-76
2022/06/15 02:47:44;;;;;;;;;5.33;5.33;;;;;22.12;61.43;101255.56;5113032;27;45267;-77
2022/06/15 02:50:13;;;;;;;;;6.33;5.00;;;;;22.09;61.37;101259.16;5116220;27;66955;-76
2022/06/15 02:52:42;;;;;;;;;7.00;5.00;;;;;22.06;61.94;101251.22;5097573;27;45351;-76
2022/06/15 02:55:09;;;;;;;;;7.00;6.00;;;;;22.03;62.00;101253.09;5099182;27;45314;-76
2022/06/15 02:57:46;;;;;;;;;5.00;5.00;;;;;21.97;62.08;101255.03;5099121;27;45535;-76
2022/06/15 03:00:12;;;;;;;;;6.00;5.00;;;;;21.94;62.80;101247.09;5117355;27;47559;-77
2022/06/15 03:02:38;;;;;;;;;5.67;4.33;;;;;21.92;62.78;101258.78;5075905;27;1164974;-76
2022/06/15 03:05:04;;;;;;;;;6.00;5.00;;;;;21.87;62.58;101256.25;5118323;27;49874;-78
2022/06/15 03:07:29;;;;;;;;;5.00;5.00;;;;;21.85;63.20;101258.09;5117843;27;45496;-75
2022/06/15 03:09:54;;;;;;;;;8.00;5.33;;;;;21.84;63.22;101256.34;5117217;27;62834;-76
2022/06/15 03:12:20;;;;;;;;;6.33;5.33;;;;;21.83;63.81;101264.44;5118739;27;46164;-76
2022/06/15 03:14:45;;;;;;;;;6.00;4.33;;;;;21.81;64.31;101264.47;5117708;27;56664;-75
2022/06/15 03:17:10;;;;;;;;;9.00;5.00;;;;;21.78;64.43;101264.56;5119026;27;45471;-76
2022/06/15 03:19:36;;;;;;;;;6.00;6.00;;;;;21.78;64.27;101274.44;5118253;27;47489;-76
2022/06/15 03:22:01;;;;;;;;;7.00;6.00;;;;;21.75;64.87;101274.53;5117036;27;60331;-78
2022/06/15 03:24:27;;;;;;;;;6.00;6.00;;;;;21.72;64.42;101272.78;5100422;27;45310;-77
2022/06/15 03:26:52;;;;;;;;;5.67;5.67;;;;;21.69;65.01;101267.53;5117165;27;55846;-76
2022/06/15 03:29:17;;;;;;;;;7.33;4.00;;;;;21.66;65.27;101264.91;5117715;27;61190;-77
2022/06/15 03:31:43;;;;;;;;;7.00;6.00;;;;;21.64;65.32;101269.47;5117604;27;61662;-79
2022/06/15 03:34:08;;;;;;;;;7.00;7.00;;;;;21.64;65.26;101273.03;5117535;27;45824;-77
2022/06/15 03:36:34;;;;;;;;;8.67;6.33;;;;;21.62;66.03;101276.66;5117619;27;54721;-76
2022/06/15 03:38:59;;;;;;;;;8.67;6.00;;;;;21.61;66.37;101270.41;5117659;27;45433;-77
2022/06/15 03:41:24;;;;;;;;;6.67;5.00;;;;;21.62;66.27;101266.78;5117414;27;57225;-77
2022/06/15 03:43:50;;;;;;;;;8.33;6.00;;;;;21.61;66.51;101265.03;5099792;27;45599;-77
2022/06/15 03:46:15;;;;;;;;;6.33;6.33;;;;;21.62;66.39;101265.91;5117013;27;63071;-75
2022/06/15 03:48:41;;;;;;;;;6.67;5.33;;;;;21.62;66.56;101274.84;5117540;27;45871;-76
2022/06/15 03:51:06;;;;;;;;;6.00;4.33;;;;;21.63;66.89;101265.03;5116936;27;65910;-78
2022/06/15 03:53:31;;;;;;;;;7.00;6.00;;;;;21.62;66.87;101272.16;5116220;27;55446;-76
2022/06/15 03:55:57;;;;;;;;;9.33;5.33;;;;;21.62;66.80;101261.41;5118262;27;45354;-78
2022/06/15 03:58:22;;;;;;;;;6.00;5.33;;;;;21.61;67.72;101258.78;5116805;27;54207;-77
2022/06/15 04:00:49;;;;;;;;;6.67;5.67;;;;;21.61;67.69;101262.34;5117917;27;45184;-77
2022/06/15 04:03:14;;;;;;;;;6.00;5.33;;;;;21.62;67.46;101265.91;5116722;27;45484;-76
2022/06/15 04:05:45;;;;;;;;;5.00;5.00;;;;;21.62;67.81;101264.09;5116909;27;60657;-77
2022/06/15 04:08:50;;;;;;;;;7.00;5.00;;;;;21.60;67.91;101265.97;5116629;27;47494;-76
2022/06/15 04:11:58;;;;;;;;;4.67;4.33;;;;;21.60;67.53;101273.16;5113480;27;45518;-76
2022/06/15 04:14:03;;;;;;;;;7.00;7.00;;;;;21.60;67.73;101271.34;5117122;27;45287;-77
2022/06/15 04:16:28;;;;;;;;;8.00;4.00;;;;;21.60;68.05;101262.41;5117791;27;45575;-77
2022/06/15 04:18:53;;;;;;;;;5.33;5.33;;;;;21.59;67.98;101256.16;5117344;27;46492;-76
2022/06/15 04:21:19;;;;;;;;;6.00;6.00;;;;;21.58;68.46;101258.88;5116329;27;60982;-76
2022/06/15 04:23:44;;;;;;;;;6.67;6.00;;;;;21.56;68.68;101261.59;5116515;27;58906;-75
2022/06/15 04:26:10;;;;;;;;;8.00;6.00;;;;;21.54;69.02;101267.94;5116497;27;51620;-77
2022/06/15 04:28:38;;;;;;;;;6.33;5.00;;;;;21.51;69.04;101263.53;5116862;27;64592;-76
2022/06/15 04:31:03;;;;;;;;;6.00;5.00;;;;;21.52;68.61;101275.16;5098401;27;45239;-77
2022/06/15 04:33:29;;;;;;;;;4.00;4.00;;;;;21.49;69.01;101276.13;5116040;27;65576;-75
2022/06/15 04:35:55;;;;;;;;;5.67;5.67;;;;;21.47;69.07;101274.41;5117542;27;45405;-77
2022/06/15 04:38:20;;;;;;;;;7.00;5.67;;;;;21.45;69.37;101275.31;5091119;27;47959;-77
2022/06/15 04:40:46;;;;;;;;;8.67;5.33;;;;;21.44;69.77;101278.06;5116680;27;65079;-76
2022/06/15 04:43:11;;;;;;;;;7.00;6.00;;;;;21.42;69.96;101274.53;5116959;27;45334;-77
2022/06/15 04:45:37;;;;;;;;;7.00;5.67;;;;;21.42;70.08;101280.78;5117082;27;45319;-76
2022/06/15 04:48:03;;;;;;;;;7.33;5.00;;;;;21.43;69.88;101281.69;5117273;27;46396;-77
2022/06/15 04:50:29;;;;;;;;;10.00;7.00;;;;;21.42;70.48;101283.47;5116286;27;46263;-77
2022/06/15 04:52:55;;;;;;;;;6.67;6.67;;;;;21.42;70.21;101283.47;5116771;27;45449;-76
2022/06/15 04:55:22;;;;;;;;;6.67;6.00;;;;;21.43;70.33;101289.72;5117095;27;45582;-76
2022/06/15 04:57:50;;;;;;;;;5.33;5.33;;;;;21.44;70.86;101283.44;5115904;27;45799;-76
2022/06/15 05:00:17;;;;;;;;;6.00;6.00;;;;;21.43;70.59;101287.03;5116725;27;45523;-77
2022/06/15 05:02:45;;;;;;;;;7.00;6.00;;;;;21.44;70.99;101283.44;5115492;27;45405;-76
2022/06/15 05:05:10;;;;;;;;;5.67;5.00;;;;;21.42;70.92;101294.22;5116051;27;45436;-76
2022/06/15 05:07:36;;;;;;;;;10.00;6.67;;;;;21.45;71.34;101291.44;5116553;27;47605;-75
2022/06/15 05:10:03;;;;;;;;;7.00;6.00;;;;;21.47;70.79;101293.22;5116869;27;45535;-78
2022/06/15 05:12:29;;;;;;;;;7.33;6.00;;;;;21.48;71.13;101286.94;5116470;27;45366;-75
2022/06/15 05:14:54;;;;;;;;;8.00;6.33;;;;;21.49;71.51;101284.19;5117960;27;45647;-77
2022/06/15 05:17:22;;;;;;;;;6.33;5.00;;;;;21.50;71.49;101280.56;5119427;27;58546;-76
2022/06/15 05:19:47;;;;;;;;;7.00;6.00;;;;;21.49;71.61;101281.50;5101217;27;45499;-77
2022/06/15 05:22:13;;;;;;;;;8.33;6.00;;;;;21.51;71.96;101281.44;5120874;27;45212;-76
2022/06/15 05:24:38;;;;;;;;;7.67;7.67;;;;;21.52;71.89;101281.44;5118683;27;62487;-75
2022/06/15 05:27:05;;;;;;;;;7.00;7.00;;;;;21.53;71.60;101283.19;5113911;27;46402;-76
2022/06/15 05:29:30;;;;;;;;;9.00;8.00;;;;;21.54;71.92;101289.44;5118110;27;45460;-77
2022/06/15 05:31:56;;;;;;;;;8.00;6.00;;;;;21.55;72.82;101288.50;5119627;27;45295;-77
2022/06/15 05:34:22;;;;;;;;;6.67;6.00;;;;;21.55;72.33;101280.44;5119749;27;45323;-77
2022/06/15 05:36:48;;;;;;;;;8.33;8.33;;;;;21.57;72.17;101289.34;5119300;27;46667;-76
2022/06/15 05:39:13;;;;;;;;;7.00;5.00;;;;;21.59;72.15;101290.19;5118452;27;45484;-77
2022/06/15 05:41:39;;;;;;;;;6.00;6.00;;;;;21.61;72.30;101291.03;5119125;27;45455;-77
2022/06/15 05:46:34;;;;;;;;;6.67;5.33;;;;;21.60;72.75;101292.84;5118252;27;45623;-73
2022/06/15 05:49:01;;;;;;;;;6.67;6.67;;;;;21.55;72.74;101291.19;5118139;27;45295;-73
2022/06/15 05:51:27;;;;;;;;;10.67;7.00;;;;;21.51;72.65;101293.09;5117311;27;45803;-74
2022/06/15 05:53:53;;;;;;;;;7.00;7.00;;;;;21.49;72.80;101294.94;5118636;27;45691;-74
2022/06/15 05:56:19;;;;;;;;;9.33;7.67;;;;;21.45;74.43;101296.81;5119014;27;46323;-74
2022/06/15 05:58:45;;;;;;;;;7.33;7.33;;;;;21.43;73.29;101293.31;5116505;27;45954;-74
2022/06/15 06:01:18;;;;;;;;;9.00;6.67;;;;;21.42;74.48;101299.59;5221640;22;45600;-74
2022/06/15 06:03:43;;;;;;;;;10.00;7.67;;;;;21.41;73.55;101300.53;5096622;27;45458;-74
2022/06/15 06:06:10;;;;;;;;;9.00;6.00;;;;;21.42;73.62;101296.03;5095196;27;47562;-74
2022/06/15 06:08:36;;;;;;;;;8.00;7.00;;;;;21.40;73.54;101292.50;5098370;27;45388;-74
2022/06/15 06:11:01;;;;;;;;;8.00;7.00;;;;;21.40;74.62;101293.38;5095630;27;61517;-74
2022/06/15 06:13:27;;;;;;;;;7.33;7.33;;;;;21.43;74.48;101292.41;5099725;27;45524;-76
2022/06/15 06:15:54;;;;;;;;;9.00;9.00;;;;;21.42;74.52;101290.66;5092263;27;46453;-74
2022/06/15 06:18:19;;;;;;;;;8.00;6.67;;;;;21.43;73.60;101287.03;5097315;27;45327;-76
2022/06/15 06:20:44;;;;;;;;;8.00;7.00;;;;;21.48;74.25;101286.94;5096440;27;46727;-75
2022/06/15 06:23:10;;;;;;;;;6.33;6.33;;;;;21.49;74.76;101284.19;5097014;27;45506;-73
2022/06/15 06:25:35;;;;;;;;;7.00;7.00;;;;;21.51;74.20;101284.13;5092493;27;58234;-73
2022/06/15 06:28:00;;;;;;;;;14.33;8.33;;;;;21.53;74.12;101290.38;5096201;27;63141;-73
2022/06/15 06:30:26;;;;;;;;;8.00;8.00;;;;;21.57;73.92;101297.41;5097954;27;60781;-76
2022/06/15 06:32:51;;;;;;;;;9.33;8.67;;;;;21.59;74.37;101298.25;5100841;27;60850;-75
2022/06/15 06:35:17;;;;;;;;;8.00;7.00;;;;;21.60;74.96;101292.84;5095766;27;66009;-75
2022/06/15 06:37:43;;;;;;;;;8.67;7.00;;;;;21.63;74.55;101291.88;5095522;27;57903;-74
2022/06/15 06:40:12;;;;;;;;;10.67;8.00;;;;;21.68;74.03;101296.22;5077535;27;45502;-75
2022/06/15 06:42:38;;;;;;;;;8.00;7.00;;;;;21.75;75.94;101299.59;5072327;27;45645;-73
2022/06/15 06:45:03;;;;;;;;;11.00;8.00;;;;;21.78;74.84;101299.50;5095620;27;46860;-74
2022/06/15 06:47:29;;;;;;;;;11.33;8.67;;;;;21.82;73.96;101298.50;5096376;27;45370;-74
2022/06/15 06:49:54;;;;;;;;;10.00;9.00;;;;;21.84;73.33;101303.81;5096613;27;45354;-74
2022/06/15 06:52:19;;;;;;;;;10.33;8.67;;;;;21.86;73.29;101300.19;5096590;27;50814;-73
2022/06/15 06:54:45;;;;;;;;;8.00;8.00;;;;;21.92;73.75;101302.69;5096011;27;54417;-75
2022/06/15 06:57:10;;;;;;;;;11.67;8.33;;;;;22.01;73.85;101298.00;5099924;27;47196;-76
2022/06/15 06:59:36;;;;;;;;;9.00;7.00;;;;;22.13;74.52;101294.97;5099885;27;45291;-74
2022/06/15 07:02:01;;;;;;;;;8.33;8.33;;;;;22.20;73.75;101294.72;5080824;27;45706;-74
2022/06/15 07:04:26;;;;;;;;;8.00;6.67;;;;;22.27;75.13;101295.44;5076760;27;70335;-73
2022/06/15 07:06:56;;;;;;;;;8.00;8.00;;;;;22.32;73.67;101295.28;5095569;27;45544;-74
2022/06/15 07:09:21;;;;;;;;;8.00;7.00;;;;;22.36;73.62;101294.28;5100478;27;45672;-75
2022/06/15 07:11:46;;;;;;;;;12.33;10.00;;;;;22.36;73.21;101297.84;5097319;27;59492;-73
2022/06/15 07:14:12;;;;;;;;;11.00;9.00;;;;;22.41;73.39;101306.66;5095387;27;65165;-73
2022/06/15 07:16:38;;;;;;;;;9.00;6.00;;;;;22.44;74.54;101305.69;5074590;27;46236;-75
2022/06/15 07:19:03;;;;;;;;;9.00;7.00;;;;;22.45;73.51;101296.69;5094059;27;45450;-73
2022/06/15 07:21:28;;;;;;;;;10.00;8.00;;;;;22.46;72.03;101298.44;5095922;27;45481;-73
2022/06/15 07:23:56;;;;;;;;;8.00;8.00;;;;;22.48;72.82;101299.31;5095739;27;46738;-76
2022/06/15 07:26:28;;;;;;;;;9.33;7.67;;;;;22.53;72.50;101312.59;5095596;27;45591;-73
2022/06/15 07:28:53;;;;;;;;;8.67;7.00;;;;;22.60;73.53;101306.09;5096365;27;45459;-72
2022/06/15 07:31:21;;;;;;;;;9.00;8.00;;;;;22.65;72.33;101307.72;5096252;27;45791;-74
2022/06/15 07:33:47;;;;;;;;;9.00;8.00;;;;;22.74;71.95;101320.00;5095915;27;46568;-74
2022/06/15 07:36:12;;;;;;;;;9.67;8.00;;;;;22.85;71.87;101317.88;5095822;27;45561;-73
2022/06/15 07:38:37;;;;;;;;;9.67;7.00;;;;;22.97;71.23;101314.81;5094409;27;45870;-74
2022/06/15 07:41:03;;;;;;;;;9.00;8.00;;;;;23.09;71.43;101315.31;5094939;27;59794;-74
2022/06/15 07:43:28;;;;;;;;;9.00;9.00;;;;;23.19;70.85;101314.97;5096246;27;47420;-74
2022/06/15 07:45:54;;;;;;;;;9.00;8.00;;;;;23.25;69.81;101309.38;5095534;27;45595;-74
2022/06/15 07:51:03;;;;;;;;;9.00;9.00;;;;;23.44;70.38;101309.63;5094677;27;45445;-74
2022/06/15 07:53:29;;;;;;;;;11.67;9.00;;;;;23.54;71.24;101312.84;5076998;27;46588;-74
2022/06/15 07:55:54;;;;;;;;;9.00;6.00;;;;;23.63;70.25;101299.09;5095631;27;45485;-73
2022/06/15 07:58:20;;;;;;;;;11.00;7.00;;;;;23.73;69.36;101308.63;5095028;27;45430;-74
2022/06/15 08:00:48;;;;;;;;;9.00;7.00;;;;;23.84;69.45;101308.22;5095924;27;45623;-74
2022/06/15 08:03:13;;;;;;;;;7.00;7.00;;;;;23.97;68.90;101301.47;5095998;27;46704;-75
2022/06/15 08:05:42;;;;;;;;;6.67;6.67;;;;;24.13;68.83;101303.56;5092154;27;45767;-74
2022/06/15 08:08:11;;;;;;;;;11.67;9.00;;;;;24.26;67.57;101296.75;5069533;27;46072;-74
2022/06/15 08:10:37;;;;;;;;;8.67;7.00;;;;;24.38;67.45;101296.31;5079876;27;45407;-74
2022/06/15 08:13:04;;;;;;;;;6.33;6.33;;;;;24.48;66.27;101302.25;5095923;27;46363;-74
2022/06/15 08:15:30;;;;;;;;;10.33;6.00;;;;;24.59;65.39;101304.50;5094898;27;45572;-72
2022/06/15 08:17:58;;;;;;;;;7.67;6.00;;;;;24.68;65.13;101296.94;5079921;27;45435;-72
2022/06/15 08:20:31;;;;;;;;;9.67;7.33;;;;;24.74;65.03;101293.09;5076997;27;45549;-72
2022/06/15 08:23:01;;;;;;;;;7.00;7.00;;;;;24.75;65.81;101282.22;5077390;27;46319;-71
2022/06/15 08:25:31;;;;;;;;;6.00;5.00;;;;;24.83;66.49;101288.22;5093456;27;45363;-72
2022/06/15 08:27:56;;;;;;;;;7.67;6.00;;;;;24.97;64.94;101294.84;5077594;27;45516;-72
2022/06/15 08:30:22;;;;;;;;;7.67;6.00;;;;;25.09;65.77;101291.69;5095629;27;58758;-71
2022/06/15 08:32:48;;;;;;;;;7.00;6.00;;;;;25.18;65.05;101288.56;5094789;27;47313;-71
2022/06/15 08:35:14;;;;;;;;;8.67;5.00;;;;;25.26;64.77;101293.69;5094484;27;45427;-72
2022/06/15 08:37:40;;;;;;;;;7.33;6.00;;;;;25.36;65.70;101292.34;5094723;27;45490;-72
2022/06/15 08:40:06;;;;;;;;;8.00;8.00;;;;;25.43;66.24;101295.66;5096372;27;45252;-72
2022/06/15 08:42:34;;;;;;;;;8.33;8.33;;;;;25.44;65.89;101290.16;5094347;27;46812;-72
2022/06/15 08:45:21;;;;;;;;;6.00;6.00;;;;;25.43;64.07;101295.66;5095316;27;45540;-71
2022/06/15 08:47:52;;;;;;;;;7.67;6.33;;;;;25.36;62.60;101292.34;5094316;27;45418;-72
2022/06/15 08:50:23;;;;;;;;;9.00;7.00;;;;;25.28;62.78;101289.06;5097315;27;45506;-72
2022/06/15 08:52:58;;;;;;;;;6.33;5.00;;;;;25.22;62.51;101297.44;5096684;27;47291;-71
2022/06/15 08:55:50;;;;;;;;;7.00;7.00;;;;;25.17;61.83;101291.34;5077448;27;45721;-72
2022/06/15 08:58:25;;;;;;;;;6.00;6.00;;;;;25.18;63.35;101291.28;5079280;27;45855;-72
2022/06/15 09:00:54;;;;;;;;;6.67;6.67;;;;;25.19;64.00;101287.63;5097239;27;45493;-72
2022/06/15 09:03:27;;;;;;;;;7.67;5.33;;;;;25.23;64.13;101282.97;5082416;27;46031;-71
2022/06/15 09:06:00;;;;;;;;;6.00;6.00;;;;;25.25;63.97;101284.69;5078470;27;45803;-72
2022/06/15 09:08:33;;;;;;;;;9.67;6.00;;;;;25.30;63.51;101276.34;5097997;27;45507;-71
2022/06/15 09:11:21;;;;;;;;;8.33;6.00;;;;;25.34;64.36;101275.28;5095190;27;45285;-72
2022/06/15 09:13:55;;;;;;;;;7.67;6.33;;;;;25.37;64.58;101285.97;5076972;27;46677;-72
2022/06/15 09:16:31;;;;;;;;;5.67;5.67;;;;;25.41;65.04;101284.00;5098008;27;45520;-72
2022/06/15 09:19:06;;;;;;;;;7.00;7.00;;;;;25.41;65.00;101281.28;5079217;27;45887;-72
2022/06/15 09:21:41;;;;;;;;;5.33;5.33;;;;;25.43;64.11;101276.72;5078520;27;45444;-71
2022/06/15 09:24:18;;;;;;;;;8.33;7.00;;;;;25.45;64.23;101280.22;5080889;27;47128;-72
2022/06/15 09:26:49;;;;;;;;;6.33;6.00;;;;;25.46;62.46;101279.28;5097571;27;45377;-72
2022/06/15 09:29:34;;;;;;;;;7.00;5.67;;;;;25.51;63.10;101285.34;5078808;27;46379;-72
2022/06/15 09:32:08;;;;;;;;;7.67;6.33;;;;;25.55;63.39;101281.59;5079085;27;45512;-77
2022/06/15 09:34:43;;;;;;;;;10.33;7.33;;;;;25.61;63.02;101293.00;5096619;27;46980;-76
2022/06/15 09:37:15;;;;;;;;;6.00;6.00;;;;;25.69;61.20;101298.09;5096370;27;45593;-76
2022/06/15 09:39:41;;;;;;;;;7.33;6.33;;;;;25.79;61.70;101293.19;5096797;27;45581;-76
2022/06/15 09:42:20;;;;;;;;;8.33;6.67;;;;;25.87;60.46;101291.00;5097075;27;45578;-77
2022/06/15 09:45:05;;;;;;;;;10.33;6.67;;;;;25.87;60.37;101291.00;5097249;27;47288;-76
2022/06/15 09:48:00;;;;;;;;;7.00;6.00;;;;;25.90;59.63;101276.47;5080094;27;45402;-76
2022/06/15 09:50:31;;;;;;;;;8.33;8.33;;;;;25.92;59.46;101280.84;5096719;27;45276;-77
2022/06/15 09:53:06;;;;;;;;;8.00;8.00;;;;;25.94;58.80;101278.06;5098449;27;45465;-76
2022/06/15 09:55:40;;;;;;;;;12.00;10.00;;;;;25.98;58.05;101272.44;5079688;27;47059;-77
2022/06/15 09:58:08;;;;;;;;;9.67;8.00;;;;;26.01;57.70;101277.72;5078756;27;45450;-76
2022/06/15 10:00:36;;;;;;;;;9.67;5.67;;;;;26.05;57.35;101270.34;5078994;27;45306;-76
2022/06/15 10:03:04;;;;;;;;;7.67;7.33;;;;;26.11;58.00;101275.47;5097887;27;45644;-76
2022/06/15 10:05:36;;;;;;;;;13.33;7.33;;;;;26.16;57.62;101267.13;5080513;27;46616;-76
2022/06/15 10:08:04;;;;;;;;;10.33;7.00;;;;;26.21;57.25;101279.50;5098163;27;45460;-76
2022/06/15 10:10:35;;;;;;;;;8.33;7.33;;;;;26.28;56.86;101270.13;5098976;27;45248;-76
2022/06/15 10:13:04;;;;;;;;;7.00;7.00;;;;;26.33;56.42;101275.34;5079681;27;45484;-76
2022/06/15 10:15:34;;;;;;;;;8.67;8.00;;;;;26.36;56.90;101269.75;5098938;27;46550;-78
2022/06/15 10:18:14;;;;;;;;;8.33;7.33;;;;;26.41;56.22;101280.38;5098688;27;45369;-76
2022/06/15 10:20:41;;;;;;;;;6.00;6.00;;;;;26.45;56.37;101272.06;5098887;27;45201;-76
2022/06/15 10:23:18;;;;;;;;;10.00;7.33;;;;;26.49;56.31;101279.09;5098892;27;45216;-79
2022/06/15 10:25:53;;;;;;;;;12.67;8.67;;;;;26.55;56.84;101276.09;5098846;27;45435;-76
2022/06/15 10:28:31;;;;;;;;;7.33;7.33;;;;;26.62;56.66;101273.94;5098626;27;45204;-77
2022/06/15 10:31:00;;;;;;;;;5.33;5.33;;;;;26.66;56.61;101277.41;5098702;27;45683;-76
2022/06/15 10:33:40;;;;;;;;;8.00;8.00;;;;;26.70;56.82;101270.88;5098322;27;45536;-76
2022/06/15 10:36:20;;;;;;;;;7.33;7.00;;;;;26.75;56.29;101272.41;5098825;27;46347;-76
2022/06/15 10:38:53;;;;;;;;;8.67;7.67;;;;;26.82;55.50;101271.13;5089552;27;45476;-76
2022/06/15 10:44:03;;;;;;;;;8.67;7.33;;;;;26.90;54.22;101277.06;5094455;27;45252;-76
2022/06/15 10:46:48;;;;;;;;;6.00;6.00;;;;;26.97;54.47;101269.50;5075407;27;45645;-77
2022/06/15 10:49:14;;;;;;;;;7.33;6.33;;;;;27.00;53.86;101268.44;5071617;27;45509;-77
2022/06/15 10:51:40;;;;;;;;;7.00;6.00;;;;;27.07;53.84;101278.97;5078465;27;53410;-76
2022/06/15 10:54:19;;;;;;;;;11.67;8.00;;;;;27.14;53.81;101268.66;5075488;27;45520;-80
2022/06/15 11:02:40;;;;;;;;;8.67;8.67;;;;;27.28;52.80;101268.84;5094715;27;45568;-75
2022/06/15 11:05:08;;;;;;;;;10.67;8.00;;;;;27.33;53.13;101274.03;5091508;27;46314;-73
2022/06/15 11:07:41;;;;;;;;;9.67;8.00;;;;;27.37;53.07;101262.06;5097797;27;45512;-73
2022/06/15 11:10:14;;;;;;;;;7.00;7.00;;;;;27.44;53.30;101271.63;5095493;27;45494;-74
2022/06/15 11:12:46;;;;;;;;;6.67;6.67;;;;;27.53;53.14;101273.84;5077675;27;45402;-74
2022/06/15 11:15:14;;;;;;;;;8.00;7.00;;;;;27.60;51.96;101275.28;5096548;27;45527;-72
2022/06/15 11:18:02;;;;;;;;;7.67;7.67;;;;;27.68;51.61;101274.88;5096508;27;45319;-73
2022/06/15 11:20:45;;;;;;;;;9.33;7.33;;;;;27.78;52.34;101267.16;5095061;27;45493;-72
2022/06/15 11:23:16;;;;;;;;;11.67;8.67;;;;;27.86;51.87;101273.94;5097440;27;45529;-75
2022/06/15 11:25:47;;;;;;;;;10.33;7.67;;;;;27.96;51.36;101267.97;5072431;27;45586;-73
2022/06/15 11:28:24;;;;;;;;;9.33;9.00;;;;;28.05;51.24;101264.78;5097295;27;46251;-75
2022/06/15 11:30:55;;;;;;;;;7.33;7.33;;;;;28.15;51.40;101266.03;5077716;27;45640;-74
2022/06/15 11:33:33;;;;;;;;;10.33;9.33;;;;;28.25;50.44;101261.84;5094729;27;45619;-73
2022/06/15 11:36:02;;;;;;;;;10.67;8.33;;;;;28.36;51.36;101261.25;5074651;27;45514;-75
2022/06/15 11:38:42;;;;;;;;;7.33;7.33;;;;;28.44;50.53;101268.03;5095819;27;45720;-74
2022/06/15 11:41:49;;;;;;;;;10.67;9.33;;;;;28.55;50.12;101259.25;5094388;27;45597;-74
2022/06/15 11:44:30;;;;;;;;;10.00;6.67;;;;;28.63;50.96;101247.94;4986370;28;45472;-74
2022/06/15 11:47:02;;;;;;;;;8.33;7.67;;;;;28.73;51.03;101256.44;4993605;28;45618;-74
2022/06/15 11:49:33;;;;;;;;;11.00;9.00;;;;;28.88;49.75;101261.00;5057853;27;45484;-74